sensor_id;sensor_type;location;lat;lon;timestamp;P1;durP1;ratioP1;P2;durP2;ratioP2
11646;SDS011;5880;52.342;9.662;2023-10-09T00:00:12;1.38;;;1.08;;
11646;SDS011;5880;52.342;9.662;2023-10-09T00:03:00;1.33;;;0.88;;
11646;SDS011;5880;52.342;9.662;2023-10-09T00:05:26;0.80;;;0.80;;
11646;SDS011;5880;52.342;9.662;2023-10-09T00:08:07;1.58;;;1.20;;
11646;SDS011;5880;52.342;9.662;2023-10-09T00:10:34;1.83;;;1.20;;
11646;SDS011;5880;52.342;9.662;2023-10-09T00:13:18;1.17;;;1.08;;
11646;SDS011;5880;52.342;9.662;2023-10-09T00:15:58;2.30;;;0.90;;
11646;SDS011;5880;52.342;9.662;2023-10-09T00:18:39;1.65;;;1.13;;
11646;SDS011;5880;52.342;9.662;2023-10-09T00:21:17;1.08;;;0.90;;
11646;SDS011;5880;52.342;9.662;2023-10-09T00:23:48;1.05;;;0.88;;
11646;SDS011;5880;52.342;9.662;2023-10-09T00:26:24;0.90;;;0.90;;
11646;SDS011;5880;52.342;9.662;2023-10-09T00:28:50;1.55;;;1.02;;
11646;SDS011;5880;52.342;9.662;2023-10-09T00:31:17;1.35;;;1.00;;
11646;SDS011;5880;52.342;9.662;2023-10-09T00:34:10;1.17;;;1.00;;
11646;SDS011;5880;52.342;9.662;2023-10-09T00:36:43;1.52;;;1.02;;
11646;SDS011;5880;52.342;9.662;2023-10-09T00:39:15;1.80;;;1.15;;
11646;SDS011;5880;52.342;9.662;2023-10-09T00:42:00;2.30;;;1.08;;
11646;SDS011;5880;52.342;9.662;2023-10-09T00:44:27;1.67;;;1.05;;
11646;SDS011;5880;52.342;9.662;2023-10-09T00:47:06;1.25;;;1.10;;
11646;SDS011;5880;52.342;9.662;2023-10-09T00:49:47;2.13;;;1.10;;
11646;SDS011;5880;52.342;9.662;2023-10-09T00:52:39;1.67;;;1.17;;
11646;SDS011;5880;52.342;9.662;2023-10-09T00:55:14;2.10;;;1.00;;
11646;SDS011;5880;52.342;9.662;2023-10-09T00:57:46;1.20;;;1.10;;
11646;SDS011;5880;52.342;9.662;2023-10-09T01:00:22;1.43;;;1.10;;
11646;SDS011;5880;52.342;9.662;2023-10-09T01:03:14;2.00;;;1.25;;
11646;SDS011;5880;52.342;9.662;2023-10-09T01:05:41;1.30;;;1.00;;
11646;SDS011;5880;52.342;9.662;2023-10-09T01:08:38;1.45;;;1.08;;
11646;SDS011;5880;52.342;9.662;2023-10-09T01:11:05;1.33;;;1.00;;
11646;SDS011;5880;52.342;9.662;2023-10-09T01:13:38;1.30;;;1.10;;
11646;SDS011;5880;52.342;9.662;2023-10-09T01:16:19;1.55;;;1.20;;
11646;SDS011;5880;52.342;9.662;2023-10-09T01:18:48;2.03;;;1.25;;
11646;SDS011;5880;52.342;9.662;2023-10-09T01:21:19;1.95;;;1.15;;
11646;SDS011;5880;52.342;9.662;2023-10-09T01:23:52;1.00;;;1.00;;
11646;SDS011;5880;52.342;9.662;2023-10-09T01:26:24;2.17;;;1.13;;
11646;SDS011;5880;52.342;9.662;2023-10-09T01:28:51;1.35;;;0.98;;
11646;SDS011;5880;52.342;9.662;2023-10-09T01:31:23;1.15;;;1.05;;
11646;SDS011;5880;52.342;9.662;2023-10-09T01:33:51;5.53;;;1.20;;
11646;SDS011;5880;52.342;9.662;2023-10-09T01:36:24;1.05;;;0.95;;
11646;SDS011;5880;52.342;9.662;2023-10-09T01:39:00;1.85;;;1.00;;
11646;SDS011;5880;52.342;9.662;2023-10-09T01:41:33;2.95;;;1.13;;
11646;SDS011;5880;52.342;9.662;2023-10-09T01:43:59;3.63;;;1.30;;
11646;SDS011;5880;52.342;9.662;2023-10-09T01:46:35;1.75;;;1.02;;
11646;SDS011;5880;52.342;9.662;2023-10-09T01:49:01;1.40;;;1.30;;
11646;SDS011;5880;52.342;9.662;2023-10-09T01:51:38;2.00;;;1.42;;
11646;SDS011;5880;52.342;9.662;2023-10-09T01:54:04;2.33;;;1.10;;
11646;SDS011;5880;52.342;9.662;2023-10-09T01:56:29;2.85;;;1.40;;
11646;SDS011;5880;52.342;9.662;2023-10-09T01:58:55;1.25;;;1.13;;
11646;SDS011;5880;52.342;9.662;2023-10-09T02:01:27;1.55;;;1.15;;
11646;SDS011;5880;52.342;9.662;2023-10-09T02:03:53;2.15;;;1.10;;
11646;SDS011;5880;52.342;9.662;2023-10-09T02:06:19;1.48;;;1.30;;
11646;SDS011;5880;52.342;9.662;2023-10-09T02:08:57;2.03;;;1.38;;
11646;SDS011;5880;52.342;9.662;2023-10-09T02:11:24;1.88;;;1.50;;
11646;SDS011;5880;52.342;9.662;2023-10-09T02:14:06;2.95;;;1.30;;
11646;SDS011;5880;52.342;9.662;2023-10-09T02:16:52;1.77;;;1.38;;
11646;SDS011;5880;52.342;9.662;2023-10-09T02:19:30;2.30;;;1.45;;
11646;SDS011;5880;52.342;9.662;2023-10-09T02:22:00;1.40;;;1.30;;
11646;SDS011;5880;52.342;9.662;2023-10-09T02:24:40;2.20;;;1.60;;
11646;SDS011;5880;52.342;9.662;2023-10-09T02:27:23;1.33;;;1.23;;
11646;SDS011;5880;52.342;9.662;2023-10-09T02:30:07;3.20;;;1.45;;
11646;SDS011;5880;52.342;9.662;2023-10-09T02:32:40;2.10;;;1.60;;
11646;SDS011;5880;52.342;9.662;2023-10-09T02:35:09;2.28;;;1.60;;
11646;SDS011;5880;52.342;9.662;2023-10-09T02:37:56;2.45;;;1.40;;
11646;SDS011;5880;52.342;9.662;2023-10-09T02:40:26;2.05;;;1.50;;
11646;SDS011;5880;52.342;9.662;2023-10-09T02:42:57;1.90;;;1.50;;
11646;SDS011;5880;52.342;9.662;2023-10-09T02:45:23;2.42;;;1.50;;
11646;SDS011;5880;52.342;9.662;2023-10-09T02:47:49;2.70;;;1.50;;
11646;SDS011;5880;52.342;9.662;2023-10-09T02:50:16;3.78;;;1.35;;
11646;SDS011;5880;52.342;9.662;2023-10-09T02:52:46;2.00;;;1.48;;
11646;SDS011;5880;52.342;9.662;2023-10-09T02:55:17;1.83;;;1.55;;
11646;SDS011;5880;52.342;9.662;2023-10-09T02:57:49;3.47;;;1.50;;
11646;SDS011;5880;52.342;9.662;2023-10-09T03:00:21;2.55;;;1.70;;
11646;SDS011;5880;52.342;9.662;2023-10-09T03:02:54;2.75;;;1.80;;
11646;SDS011;5880;52.342;9.662;2023-10-09T03:05:23;2.20;;;1.80;;
11646;SDS011;5880;52.342;9.662;2023-10-09T03:07:52;1.52;;;1.27;;
11646;SDS011;5880;52.342;9.662;2023-10-09T03:10:21;1.48;;;1.38;;
11646;SDS011;5880;52.342;9.662;2023-10-09T03:12:50;1.80;;;1.50;;
11646;SDS011;5880;52.342;9.662;2023-10-09T03:15:18;2.30;;;1.42;;
11646;SDS011;5880;52.342;9.662;2023-10-09T03:17:45;1.88;;;1.45;;
11646;SDS011;5880;52.342;9.662;2023-10-09T03:20:13;1.77;;;1.38;;
11646;SDS011;5880;52.342;9.662;2023-10-09T03:22:42;3.08;;;1.40;;
11646;SDS011;5880;52.342;9.662;2023-10-09T03:25:10;1.77;;;1.40;;
11646;SDS011;5880;52.342;9.662;2023-10-09T03:27:39;1.92;;;1.52;;
11646;SDS011;5880;52.342;9.662;2023-10-09T03:30:12;3.55;;;1.88;;
11646;SDS011;5880;52.342;9.662;2023-10-09T03:32:43;3.42;;;1.98;;
11646;SDS011;5880;52.342;9.662;2023-10-09T03:35:10;2.97;;;1.83;;
11646;SDS011;5880;52.342;9.662;2023-10-09T03:37:40;2.70;;;2.00;;
11646;SDS011;5880;52.342;9.662;2023-10-09T03:40:06;2.67;;;1.80;;
11646;SDS011;5880;52.342;9.662;2023-10-09T03:42:33;4.70;;;2.00;;
11646;SDS011;5880;52.342;9.662;2023-10-09T03:45:01;3.40;;;2.03;;
11646;SDS011;5880;52.342;9.662;2023-10-09T03:47:37;4.72;;;2.20;;
11646;SDS011;5880;52.342;9.662;2023-10-09T03:50:07;3.17;;;2.03;;
11646;SDS011;5880;52.342;9.662;2023-10-09T03:52:48;2.63;;;2.20;;
11646;SDS011;5880;52.342;9.662;2023-10-09T03:55:15;2.70;;;1.85;;
11646;SDS011;5880;52.342;9.662;2023-10-09T03:57:40;3.45;;;2.45;;
11646;SDS011;5880;52.342;9.662;2023-10-09T04:00:10;3.80;;;2.42;;
11646;SDS011;5880;52.342;9.662;2023-10-09T04:02:41;3.50;;;2.30;;
11646;SDS011;5880;52.342;9.662;2023-10-09T04:05:07;2.65;;;1.98;;
11646;SDS011;5880;52.342;9.662;2023-10-09T04:07:33;3.17;;;2.10;;
11646;SDS011;5880;52.342;9.662;2023-10-09T04:10:00;4.00;;;2.22;;
11646;SDS011;5880;52.342;9.662;2023-10-09T04:12:48;3.47;;;2.17;;
11646;SDS011;5880;52.342;9.662;2023-10-09T04:15:18;2.40;;;1.92;;
11646;SDS011;5880;52.342;9.662;2023-10-09T04:17:48;2.75;;;2.08;;
11646;SDS011;5880;52.342;9.662;2023-10-09T04:20:16;4.03;;;2.10;;
11646;SDS011;5880;52.342;9.662;2023-10-09T04:22:44;3.22;;;2.28;;
11646;SDS011;5880;52.342;9.662;2023-10-09T04:25:24;4.05;;;3.05;;
11646;SDS011;5880;52.342;9.662;2023-10-09T04:27:52;5.07;;;3.38;;
11646;SDS011;5880;52.342;9.662;2023-10-09T04:30:34;5.63;;;4.35;;
11646;SDS011;5880;52.342;9.662;2023-10-09T04:33:11;6.85;;;5.10;;
11646;SDS011;5880;52.342;9.662;2023-10-09T04:36:02;10.80;;;6.63;;
11646;SDS011;5880;52.342;9.662;2023-10-09T04:38:48;11.80;;;7.22;;
11646;SDS011;5880;52.342;9.662;2023-10-09T04:41:29;12.45;;;7.95;;
11646;SDS011;5880;52.342;9.662;2023-10-09T04:44:08;12.40;;;8.68;;
11646;SDS011;5880;52.342;9.662;2023-10-09T04:46:50;13.40;;;8.80;;
11646;SDS011;5880;52.342;9.662;2023-10-09T04:49:35;13.23;;;8.73;;
11646;SDS011;5880;52.342;9.662;2023-10-09T04:52:31;14.85;;;9.50;;
11646;SDS011;5880;52.342;9.662;2023-10-09T04:54:57;13.32;;;9.93;;
11646;SDS011;5880;52.342;9.662;2023-10-09T04:57:33;15.13;;;9.57;;
11646;SDS011;5880;52.342;9.662;2023-10-09T05:00:06;13.13;;;8.85;;
11646;SDS011;5880;52.342;9.662;2023-10-09T05:02:53;15.10;;;9.65;;
11646;SDS011;5880;52.342;9.662;2023-10-09T05:05:29;14.00;;;9.63;;
11646;SDS011;5880;52.342;9.662;2023-10-09T05:08:14;15.40;;;9.13;;
11646;SDS011;5880;52.342;9.662;2023-10-09T05:10:50;11.73;;;8.65;;
11646;SDS011;5880;52.342;9.662;2023-10-09T05:13:26;15.57;;;9.65;;
11646;SDS011;5880;52.342;9.662;2023-10-09T05:18:50;12.55;;;9.15;;
11646;SDS011;5880;52.342;9.662;2023-10-09T05:21:34;13.98;;;8.90;;
11646;SDS011;5880;52.342;9.662;2023-10-09T05:24:10;14.52;;;9.57;;
11646;SDS011;5880;52.342;9.662;2023-10-09T05:26:37;13.68;;;8.88;;
11646;SDS011;5880;52.342;9.662;2023-10-09T05:29:12;13.57;;;8.68;;
11646;SDS011;5880;52.342;9.662;2023-10-09T05:31:47;12.82;;;8.68;;
11646;SDS011;5880;52.342;9.662;2023-10-09T05:34:22;12.10;;;8.52;;
11646;SDS011;5880;52.342;9.662;2023-10-09T05:36:59;13.43;;;8.73;;
11646;SDS011;5880;52.342;9.662;2023-10-09T05:39:47;13.73;;;8.65;;
11646;SDS011;5880;52.342;9.662;2023-10-09T05:42:35;13.75;;;8.23;;
11646;SDS011;5880;52.342;9.662;2023-10-09T05:45:11;11.95;;;8.65;;
11646;SDS011;5880;52.342;9.662;2023-10-09T05:47:51;12.18;;;8.02;;
11646;SDS011;5880;52.342;9.662;2023-10-09T05:50:19;13.68;;;8.57;;
11646;SDS011;5880;52.342;9.662;2023-10-09T05:52:51;13.30;;;8.15;;
11646;SDS011;5880;52.342;9.662;2023-10-09T05:55:22;10.93;;;7.57;;
11646;SDS011;5880;52.342;9.662;2023-10-09T05:57:55;11.63;;;7.70;;
11646;SDS011;5880;52.342;9.662;2023-10-09T06:00:33;11.70;;;8.02;;
11646;SDS011;5880;52.342;9.662;2023-10-09T06:03:18;12.23;;;8.23;;
11646;SDS011;5880;52.342;9.662;2023-10-09T06:05:48;10.77;;;7.65;;
11646;SDS011;5880;52.342;9.662;2023-10-09T06:08:21;10.80;;;7.40;;
11646;SDS011;5880;52.342;9.662;2023-10-09T06:11:09;11.77;;;7.68;;
11646;SDS011;5880;52.342;9.662;2023-10-09T06:13:56;13.38;;;7.68;;
11646;SDS011;5880;52.342;9.662;2023-10-09T06:16:30;11.55;;;7.75;;
11646;SDS011;5880;52.342;9.662;2023-10-09T06:19:25;11.70;;;7.72;;
11646;SDS011;5880;52.342;9.662;2023-10-09T06:21:55;11.48;;;8.27;;
11646;SDS011;5880;52.342;9.662;2023-10-09T06:24:28;12.77;;;8.07;;
11646;SDS011;5880;52.342;9.662;2023-10-09T06:27:03;12.23;;;8.07;;
11646;SDS011;5880;52.342;9.662;2023-10-09T06:29:29;13.07;;;7.63;;
11646;SDS011;5880;52.342;9.662;2023-10-09T06:32:02;11.85;;;8.18;;
11646;SDS011;5880;52.342;9.662;2023-10-09T06:37:11;11.38;;;8.20;;
11646;SDS011;5880;52.342;9.662;2023-10-09T06:39:55;12.18;;;7.88;;
11646;SDS011;5880;52.342;9.662;2023-10-09T06:42:22;12.98;;;8.35;;
11646;SDS011;5880;52.342;9.662;2023-10-09T06:45:31;10.85;;;7.13;;
11646;SDS011;5880;52.342;9.662;2023-10-09T06:48:08;10.52;;;7.20;;
11646;SDS011;5880;52.342;9.662;2023-10-09T06:50:55;11.32;;;7.60;;
11646;SDS011;5880;52.342;9.662;2023-10-09T06:53:28;11.68;;;7.57;;
11646;SDS011;5880;52.342;9.662;2023-10-09T06:56:14;12.75;;;7.93;;
11646;SDS011;5880;52.342;9.662;2023-10-09T06:59:15;9.93;;;6.97;;
11646;SDS011;5880;52.342;9.662;2023-10-09T07:01:49;10.68;;;7.38;;
11646;SDS011;5880;52.342;9.662;2023-10-09T07:04:52;11.95;;;8.13;;
11646;SDS011;5880;52.342;9.662;2023-10-09T07:07:19;11.88;;;7.78;;
11646;SDS011;5880;52.342;9.662;2023-10-09T07:09:49;11.10;;;7.70;;
11646;SDS011;5880;52.342;9.662;2023-10-09T07:12:34;16.02;;;8.68;;
11646;SDS011;5880;52.342;9.662;2023-10-09T07:15:07;11.35;;;8.00;;
11646;SDS011;5880;52.342;9.662;2023-10-09T07:17:33;13.23;;;8.68;;
11646;SDS011;5880;52.342;9.662;2023-10-09T07:19:59;14.80;;;8.90;;
11646;SDS011;5880;52.342;9.662;2023-10-09T07:22:35;10.73;;;7.90;;
11646;SDS011;5880;52.342;9.662;2023-10-09T07:25:27;11.13;;;7.95;;
11646;SDS011;5880;52.342;9.662;2023-10-09T07:28:06;12.60;;;8.18;;
11646;SDS011;5880;52.342;9.662;2023-10-09T07:30:54;11.27;;;8.05;;
11646;SDS011;5880;52.342;9.662;2023-10-09T07:33:23;12.55;;;8.38;;
11646;SDS011;5880;52.342;9.662;2023-10-09T07:36:00;11.80;;;8.25;;
11646;SDS011;5880;52.342;9.662;2023-10-09T07:38:32;13.05;;;8.75;;
11646;SDS011;5880;52.342;9.662;2023-10-09T07:41:01;11.02;;;8.35;;
11646;SDS011;5880;52.342;9.662;2023-10-09T07:43:37;11.90;;;8.48;;
11646;SDS011;5880;52.342;9.662;2023-10-09T07:46:04;11.82;;;8.38;;
11646;SDS011;5880;52.342;9.662;2023-10-09T07:48:50;12.55;;;8.10;;
11646;SDS011;5880;52.342;9.662;2023-10-09T07:51:19;12.38;;;7.95;;
11646;SDS011;5880;52.342;9.662;2023-10-09T07:53:48;12.70;;;8.20;;
11646;SDS011;5880;52.342;9.662;2023-10-09T07:56:22;11.13;;;7.90;;
11646;SDS011;5880;52.342;9.662;2023-10-09T07:58:49;12.02;;;7.57;;
11646;SDS011;5880;52.342;9.662;2023-10-09T08:01:15;10.55;;;7.93;;
11646;SDS011;5880;52.342;9.662;2023-10-09T08:03:46;11.35;;;7.18;;
11646;SDS011;5880;52.342;9.662;2023-10-09T08:06:12;9.57;;;7.55;;
11646;SDS011;5880;52.342;9.662;2023-10-09T08:08:57;9.98;;;7.35;;
11646;SDS011;5880;52.342;9.662;2023-10-09T08:11:38;10.23;;;7.28;;
11646;SDS011;5880;52.342;9.662;2023-10-09T08:14:32;8.55;;;6.97;;
11646;SDS011;5880;52.342;9.662;2023-10-09T08:16:58;10.77;;;7.43;;
11646;SDS011;5880;52.342;9.662;2023-10-09T08:19:40;8.80;;;6.72;;
11646;SDS011;5880;52.342;9.662;2023-10-09T08:22:24;9.10;;;6.80;;
11646;SDS011;5880;52.342;9.662;2023-10-09T08:24:54;10.23;;;6.95;;
11646;SDS011;5880;52.342;9.662;2023-10-09T08:27:24;10.25;;;7.15;;
11646;SDS011;5880;52.342;9.662;2023-10-09T08:30:00;8.77;;;6.38;;
11646;SDS011;5880;52.342;9.662;2023-10-09T08:32:53;9.13;;;6.50;;
11646;SDS011;5880;52.342;9.662;2023-10-09T08:35:38;9.95;;;7.30;;
11646;SDS011;5880;52.342;9.662;2023-10-09T08:38:13;9.02;;;6.53;;
11646;SDS011;5880;52.342;9.662;2023-10-09T08:40:40;9.35;;;6.47;;
11646;SDS011;5880;52.342;9.662;2023-10-09T08:45:48;9.48;;;6.65;;
11646;SDS011;5880;52.342;9.662;2023-10-09T08:48:18;9.20;;;6.55;;
11646;SDS011;5880;52.342;9.662;2023-10-09T08:50:46;9.50;;;6.32;;
11646;SDS011;5880;52.342;9.662;2023-10-09T08:53:14;9.27;;;6.10;;
11646;SDS011;5880;52.342;9.662;2023-10-09T08:55:42;9.60;;;5.88;;
11646;SDS011;5880;52.342;9.662;2023-10-09T08:58:09;8.38;;;5.72;;
11646;SDS011;5880;52.342;9.662;2023-10-09T09:00:46;8.15;;;5.97;;
11646;SDS011;5880;52.342;9.662;2023-10-09T09:03:14;7.53;;;5.32;;
11646;SDS011;5880;52.342;9.662;2023-10-09T09:05:41;7.85;;;5.63;;
11646;SDS011;5880;52.342;9.662;2023-10-09T09:08:24;7.57;;;5.88;;
11646;SDS011;5880;52.342;9.662;2023-10-09T09:10:56;8.07;;;5.50;;
11646;SDS011;5880;52.342;9.662;2023-10-09T09:13:46;8.98;;;5.68;;
11646;SDS011;5880;52.342;9.662;2023-10-09T09:16:31;7.78;;;6.18;;
11646;SDS011;5880;52.342;9.662;2023-10-09T09:19:04;9.15;;;5.57;;
11646;SDS011;5880;52.342;9.662;2023-10-09T09:21:48;8.50;;;5.95;;
11646;SDS011;5880;52.342;9.662;2023-10-09T09:24:19;8.68;;;5.57;;
11646;SDS011;5880;52.342;9.662;2023-10-09T09:26:46;9.43;;;6.18;;
11646;SDS011;5880;52.342;9.662;2023-10-09T09:29:12;9.57;;;6.75;;
11646;SDS011;5880;52.342;9.662;2023-10-09T09:31:52;8.73;;;6.28;;
11646;SDS011;5880;52.342;9.662;2023-10-09T09:34:22;9.80;;;7.18;;
11646;SDS011;5880;52.342;9.662;2023-10-09T09:36:54;9.00;;;6.93;;
11646;SDS011;5880;52.342;9.662;2023-10-09T09:39:23;10.02;;;7.00;;
11646;SDS011;5880;52.342;9.662;2023-10-09T09:41:57;9.65;;;7.18;;
11646;SDS011;5880;52.342;9.662;2023-10-09T09:44:42;8.88;;;6.63;;
11646;SDS011;5880;52.342;9.662;2023-10-09T09:47:13;11.13;;;6.80;;
11646;SDS011;5880;52.342;9.662;2023-10-09T09:49:51;11.68;;;7.25;;
11646;SDS011;5880;52.342;9.662;2023-10-09T09:52:25;9.10;;;6.90;;
11646;SDS011;5880;52.342;9.662;2023-10-09T09:54:53;9.50;;;6.40;;
11646;SDS011;5880;52.342;9.662;2023-10-09T09:57:19;8.75;;;7.20;;
11646;SDS011;5880;52.342;9.662;2023-10-09T09:59:51;11.38;;;7.28;;
11646;SDS011;5880;52.342;9.662;2023-10-09T10:02:23;10.07;;;7.57;;
11646;SDS011;5880;52.342;9.662;2023-10-09T10:04:58;10.07;;;7.75;;
11646;SDS011;5880;52.342;9.662;2023-10-09T10:07:30;10.68;;;7.45;;
11646;SDS011;5880;52.342;9.662;2023-10-09T10:18:57;9.18;;;7.20;;
11646;SDS011;5880;52.342;9.662;2023-10-09T10:21:36;8.57;;;6.93;;
11646;SDS011;5880;52.342;9.662;2023-10-09T10:29:43;8.65;;;6.65;;
11646;SDS011;5880;52.342;9.662;2023-10-09T10:32:15;8.30;;;6.68;;
11646;SDS011;5880;52.342;9.662;2023-10-09T10:37:36;9.00;;;5.93;;
11646;SDS011;5880;52.342;9.662;2023-10-09T10:40:24;7.15;;;5.90;;
11646;SDS011;5880;52.342;9.662;2023-10-09T10:43:14;6.07;;;5.38;;
11646;SDS011;5880;52.342;9.662;2023-10-09T10:48:38;8.00;;;5.70;;
11646;SDS011;5880;52.342;9.662;2023-10-09T10:51:05;6.93;;;5.30;;
11646;SDS011;5880;52.342;9.662;2023-10-09T10:53:31;5.97;;;4.68;;
11646;SDS011;5880;52.342;9.662;2023-10-09T10:56:12;6.88;;;5.00;;
11646;SDS011;5880;52.342;9.662;2023-10-09T10:58:42;9.77;;;5.65;;
11646;SDS011;5880;52.342;9.662;2023-10-09T11:01:39;6.50;;;5.30;;
11646;SDS011;5880;52.342;9.662;2023-10-09T11:04:39;6.35;;;4.95;;
11646;SDS011;5880;52.342;9.662;2023-10-09T11:07:07;6.40;;;5.15;;
11646;SDS011;5880;52.342;9.662;2023-10-09T11:09:57;7.45;;;5.28;;
11646;SDS011;5880;52.342;9.662;2023-10-09T11:12:30;5.82;;;5.28;;
11646;SDS011;5880;52.342;9.662;2023-10-09T11:15:10;7.70;;;5.75;;
11646;SDS011;5880;52.342;9.662;2023-10-09T11:18:00;6.68;;;5.70;;
11646;SDS011;5880;52.342;9.662;2023-10-09T11:20:41;7.50;;;5.90;;
11646;SDS011;5880;52.342;9.662;2023-10-09T11:23:21;7.57;;;5.93;;
11646;SDS011;5880;52.342;9.662;2023-10-09T11:26:00;7.60;;;6.03;;
11646;SDS011;5880;52.342;9.662;2023-10-09T11:29:11;6.50;;;5.75;;
11646;SDS011;5880;52.342;9.662;2023-10-09T11:34:33;8.10;;;6.70;;
11646;SDS011;5880;52.342;9.662;2023-10-09T11:37:01;8.18;;;6.63;;
11646;SDS011;5880;52.342;9.662;2023-10-09T11:39:37;7.97;;;6.47;;
11646;SDS011;5880;52.342;9.662;2023-10-09T11:42:19;8.02;;;6.60;;
11646;SDS011;5880;52.342;9.662;2023-10-09T11:45:07;8.95;;;6.40;;
11646;SDS011;5880;52.342;9.662;2023-10-09T11:47:46;7.43;;;6.60;;
11646;SDS011;5880;52.342;9.662;2023-10-09T11:50:44;8.25;;;6.30;;
11646;SDS011;5880;52.342;9.662;2023-10-09T11:53:16;7.90;;;6.38;;
11646;SDS011;5880;52.342;9.662;2023-10-09T11:55:49;7.28;;;5.25;;
11646;SDS011;5880;52.342;9.662;2023-10-09T11:58:18;7.97;;;5.93;;
11646;SDS011;5880;52.342;9.662;2023-10-09T12:00:49;7.05;;;5.97;;
11646;SDS011;5880;52.342;9.662;2023-10-09T12:03:28;6.22;;;5.57;;
11646;SDS011;5880;52.342;9.662;2023-10-09T12:05:56;6.93;;;5.53;;
11646;SDS011;5880;52.342;9.662;2023-10-09T12:08:23;7.68;;;5.53;;
11646;SDS011;5880;52.342;9.662;2023-10-09T12:10:52;6.15;;;4.95;;
11646;SDS011;5880;52.342;9.662;2023-10-09T12:13:20;7.05;;;5.70;;
11646;SDS011;5880;52.342;9.662;2023-10-09T12:15:50;6.03;;;5.15;;
11646;SDS011;5880;52.342;9.662;2023-10-09T12:18:17;6.55;;;5.75;;
11646;SDS011;5880;52.342;9.662;2023-10-09T12:20:45;6.35;;;5.72;;
11646;SDS011;5880;52.342;9.662;2023-10-09T12:23:18;6.63;;;5.70;;
11646;SDS011;5880;52.342;9.662;2023-10-09T12:25:47;6.60;;;5.57;;
11646;SDS011;5880;52.342;9.662;2023-10-09T12:28:14;5.80;;;5.18;;
11646;SDS011;5880;52.342;9.662;2023-10-09T12:30:45;7.03;;;5.38;;
11646;SDS011;5880;52.342;9.662;2023-10-09T12:33:15;7.85;;;6.28;;
11646;SDS011;5880;52.342;9.662;2023-10-09T12:35:44;6.25;;;5.32;;
11646;SDS011;5880;52.342;9.662;2023-10-09T12:38:11;7.25;;;5.63;;
11646;SDS011;5880;52.342;9.662;2023-10-09T12:40:38;6.80;;;5.85;;
11646;SDS011;5880;52.342;9.662;2023-10-09T12:43:06;6.00;;;5.18;;
11646;SDS011;5880;52.342;9.662;2023-10-09T12:45:40;7.22;;;6.25;;
11646;SDS011;5880;52.342;9.662;2023-10-09T12:48:10;6.90;;;6.20;;
11646;SDS011;5880;52.342;9.662;2023-10-09T12:50:36;7.57;;;6.22;;
11646;SDS011;5880;52.342;9.662;2023-10-09T12:53:09;7.60;;;6.15;;
11646;SDS011;5880;52.342;9.662;2023-10-09T12:55:39;7.15;;;6.15;;
11646;SDS011;5880;52.342;9.662;2023-10-09T12:58:07;7.35;;;6.13;;
11646;SDS011;5880;52.342;9.662;2023-10-09T13:00:39;6.70;;;5.90;;
11646;SDS011;5880;52.342;9.662;2023-10-09T13:03:12;6.85;;;5.50;;
11646;SDS011;5880;52.342;9.662;2023-10-09T13:05:45;6.85;;;5.68;;
11646;SDS011;5880;52.342;9.662;2023-10-09T13:08:35;6.53;;;5.53;;
11646;SDS011;5880;52.342;9.662;2023-10-09T13:11:04;8.07;;;5.47;;
11646;SDS011;5880;52.342;9.662;2023-10-09T13:13:36;7.20;;;5.40;;
11646;SDS011;5880;52.342;9.662;2023-10-09T13:16:08;7.95;;;5.80;;
11646;SDS011;5880;52.342;9.662;2023-10-09T13:18:47;6.47;;;5.68;;
11646;SDS011;5880;52.342;9.662;2023-10-09T13:21:25;5.97;;;5.38;;
11646;SDS011;5880;52.342;9.662;2023-10-09T13:23:56;6.25;;;5.65;;
11646;SDS011;5880;52.342;9.662;2023-10-09T13:26:23;6.15;;;5.55;;
11646;SDS011;5880;52.342;9.662;2023-10-09T13:28:57;7.40;;;5.47;;
11646;SDS011;5880;52.342;9.662;2023-10-09T13:31:25;6.05;;;5.55;;
11646;SDS011;5880;52.342;9.662;2023-10-09T13:33:54;5.80;;;5.30;;
11646;SDS011;5880;52.342;9.662;2023-10-09T13:36:23;5.95;;;5.35;;
11646;SDS011;5880;52.342;9.662;2023-10-09T13:38:56;6.22;;;5.53;;
11646;SDS011;5880;52.342;9.662;2023-10-09T13:41:45;6.10;;;5.50;;
11646;SDS011;5880;52.342;9.662;2023-10-09T13:44:12;5.80;;;5.20;;
11646;SDS011;5880;52.342;9.662;2023-10-09T13:46:38;5.35;;;4.85;;
11646;SDS011;5880;52.342;9.662;2023-10-09T13:49:09;6.40;;;5.32;;
11646;SDS011;5880;52.342;9.662;2023-10-09T13:51:42;6.07;;;5.47;;
11646;SDS011;5880;52.342;9.662;2023-10-09T13:54:09;6.03;;;4.90;;
11646;SDS011;5880;52.342;9.662;2023-10-09T13:56:57;5.22;;;4.72;;
11646;SDS011;5880;52.342;9.662;2023-10-09T13:59:32;5.57;;;5.05;;
11646;SDS011;5880;52.342;9.662;2023-10-09T14:02:08;5.88;;;5.32;;
11646;SDS011;5880;52.342;9.662;2023-10-09T14:04:34;5.78;;;5.18;;
11646;SDS011;5880;52.342;9.662;2023-10-09T14:07:01;6.05;;;5.03;;
11646;SDS011;5880;52.342;9.662;2023-10-09T14:09:30;5.53;;;5.03;;
11646;SDS011;5880;52.342;9.662;2023-10-09T14:11:56;5.47;;;4.97;;
11646;SDS011;5880;52.342;9.662;2023-10-09T14:14:33;6.50;;;4.93;;
11646;SDS011;5880;52.342;9.662;2023-10-09T14:17:06;5.55;;;5.05;;
11646;SDS011;5880;52.342;9.662;2023-10-09T14:22:15;4.72;;;4.32;;
11646;SDS011;5880;52.342;9.662;2023-10-09T14:24:43;6.28;;;4.82;;
11646;SDS011;5880;52.342;9.662;2023-10-09T14:27:13;5.22;;;4.72;;
11646;SDS011;5880;52.342;9.662;2023-10-09T14:29:44;5.82;;;5.22;;
11646;SDS011;5880;52.342;9.662;2023-10-09T14:32:13;6.10;;;5.15;;
11646;SDS011;5880;52.342;9.662;2023-10-09T14:34:43;5.22;;;4.72;;
11646;SDS011;5880;52.342;9.662;2023-10-09T14:37:16;5.47;;;4.85;;
11646;SDS011;5880;52.342;9.662;2023-10-09T14:39:46;5.90;;;5.30;;
11646;SDS011;5880;52.342;9.662;2023-10-09T14:42:15;5.93;;;4.85;;
11646;SDS011;5880;52.342;9.662;2023-10-09T14:44:41;5.88;;;5.30;;
11646;SDS011;5880;52.342;9.662;2023-10-09T14:47:10;6.28;;;5.65;;
11646;SDS011;5880;52.342;9.662;2023-10-09T14:49:36;6.07;;;5.45;;
11646;SDS011;5880;52.342;9.662;2023-10-09T14:52:08;5.22;;;4.78;;
11646;SDS011;5880;52.342;9.662;2023-10-09T14:54:35;5.57;;;4.97;;
11646;SDS011;5880;52.342;9.662;2023-10-09T14:57:03;5.72;;;5.10;;
11646;SDS011;5880;52.342;9.662;2023-10-09T14:59:34;6.30;;;5.25;;
11646;SDS011;5880;52.342;9.662;2023-10-09T15:02:00;6.15;;;5.55;;
11646;SDS011;5880;52.342;9.662;2023-10-09T15:04:26;7.63;;;5.63;;
11646;SDS011;5880;52.342;9.662;2023-10-09T15:06:52;7.05;;;5.63;;
11646;SDS011;5880;52.342;9.662;2023-10-09T15:09:18;6.63;;;5.38;;
11646;SDS011;5880;52.342;9.662;2023-10-09T15:11:47;5.85;;;5.18;;
11646;SDS011;5880;52.342;9.662;2023-10-09T15:14:17;6.03;;;5.45;;
11646;SDS011;5880;52.342;9.662;2023-10-09T15:16:46;7.40;;;6.30;;
11646;SDS011;5880;52.342;9.662;2023-10-09T15:19:12;5.47;;;4.97;;
11646;SDS011;5880;52.342;9.662;2023-10-09T15:21:41;6.60;;;4.93;;
11646;SDS011;5880;52.342;9.662;2023-10-09T15:24:10;5.90;;;5.13;;
11646;SDS011;5880;52.342;9.662;2023-10-09T15:26:41;6.32;;;5.38;;
11646;SDS011;5880;52.342;9.662;2023-10-09T15:29:26;6.65;;;5.65;;
11646;SDS011;5880;52.342;9.662;2023-10-09T15:31:59;6.07;;;5.47;;
11646;SDS011;5880;52.342;9.662;2023-10-09T15:34:30;7.43;;;5.45;;
11646;SDS011;5880;52.342;9.662;2023-10-09T15:36:57;6.65;;;5.05;;
11646;SDS011;5880;52.342;9.662;2023-10-09T15:39:23;6.22;;;5.10;;
11646;SDS011;5880;52.342;9.662;2023-10-09T15:41:49;5.88;;;5.05;;
11646;SDS011;5880;52.342;9.662;2023-10-09T15:44:16;6.60;;;5.43;;
11646;SDS011;5880;52.342;9.662;2023-10-09T15:46:42;5.40;;;4.85;;
11646;SDS011;5880;52.342;9.662;2023-10-09T15:49:13;6.15;;;5.03;;
11646;SDS011;5880;52.342;9.662;2023-10-09T15:51:40;5.88;;;5.28;;
11646;SDS011;5880;52.342;9.662;2023-10-09T15:54:08;5.65;;;5.03;;
11646;SDS011;5880;52.342;9.662;2023-10-09T15:56:36;5.57;;;4.32;;
11646;SDS011;5880;52.342;9.662;2023-10-09T15:59:06;4.47;;;4.07;;
11646;SDS011;5880;52.342;9.662;2023-10-09T16:01:33;3.85;;;3.53;;
11646;SDS011;5880;52.342;9.662;2023-10-09T16:04:00;3.75;;;3.15;;
11646;SDS011;5880;52.342;9.662;2023-10-09T16:06:26;3.33;;;2.95;;
11646;SDS011;5880;52.342;9.662;2023-10-09T16:08:56;3.47;;;2.85;;
11646;SDS011;5880;52.342;9.662;2023-10-09T16:11:22;2.72;;;2.53;;